Time;durP1;ratioP1;P1;durP2;ratioP2;P2;SDS_P1;SDS_P2;PMS_P1;PMS_P2;Temp;Humidity;BMP_temperature;BMP_pressure;BME280_temperature;BME280_humidity;BME280_pressure;Samples;Min_cycle;Max_cycle;Signal;HPM_P1;HPM_P2
2022/12/22 03:28:16;;;;;;;;;3.60;1.00;;;;;12.67;78.96;99998.22;5036324;28;45371;-57
2022/12/22 03:30:42;;;;;;;;;3.25;2.25;;;;;12.60;79.11;100017.63;5048805;28;45343;-58
2022/12/22 03:33:07;;;;;;;;;4.25;2.00;;;;;12.57;79.40;100012.59;5056519;28;45316;-58
2022/12/22 03:35:32;;;;;;;;;3.50;2.50;;;;;12.57;79.19;100009.84;5055740;28;45222;-58
2022/12/22 03:38:02;;;;;;;;;2.25;1.25;;;;;12.60;79.24;100019.53;5056333;28;45331;-58
2022/12/22 03:40:29;;;;;;;;;2.60;2.60;;;;;12.56;78.75;100018.34;5056503;28;45590;-57
2022/12/22 03:48:22;;;;;;;;;0.80;0.80;;;;;12.41;77.66;99992.19;5056095;28;45455;-56
2022/12/22 03:50:48;;;;;;;;;3.75;2.50;;;;;12.60;77.71;100014.84;5056344;28;45475;-55
2022/12/22 03:53:13;;;;;;;;;4.00;1.00;;;;;12.53;76.98;100018.84;5056160;28;46423;-57
2022/12/22 03:55:39;;;;;;;;;2.00;1.00;;;;;12.67;77.41;100030.41;5054524;28;45373;-57
2022/12/22 03:58:04;;;;;;;;;2.25;1.00;;;;;12.66;76.52;100020.47;5056479;28;45427;-60
2022/12/22 04:00:29;;;;;;;;;1.00;1.00;;;;;12.63;76.87;100023.72;5056098;28;45572;-58
2022/12/22 04:02:57;;;;;;;;;2.75;1.25;;;;;12.65;77.06;100038.09;5055879;28;45683;-58
2022/12/22 04:05:23;;;;;;;;;3.40;1.80;;;;;12.60;77.43;100023.13;5055740;28;45309;-59
2022/12/22 04:07:48;;;;;;;;;3.75;2.00;;;;;12.55;77.67;100035.94;5055948;28;45419;-55
2022/12/22 04:12:58;;;;;;;;;1.20;1.20;;;;;12.49;77.67;100023.16;5055978;28;45884;-55
2022/12/22 04:15:25;;;;;;;;;0.25;0.00;;;;;12.49;77.24;100042.41;5055580;28;45331;-56
2022/12/22 04:17:51;;;;;;;;;2.60;1.60;;;;;12.44;77.93;100032.16;5055573;28;45389;-57
2022/12/22 04:20:16;;;;;;;;;3.00;1.25;;;;;12.44;77.14;100057.72;5055924;28;45589;-58
2022/12/22 04:22:42;;;;;;;;;2.25;2.00;;;;;12.45;77.27;100040.13;5055366;28;45336;-58
2022/12/22 04:25:08;;;;;;;;;4.50;1.25;;;;;12.48;77.31;100066.34;5055447;28;45453;-58
2022/12/22 04:27:33;;;;;;;;;2.25;2.00;;;;;12.47;76.72;100067.41;5053994;28;45427;-58
2022/12/22 04:29:59;;;;;;;;;1.00;1.00;;;;;12.49;77.16;100084.53;5055640;28;45544;-58
2022/12/22 04:32:24;;;;;;;;;2.00;0.25;;;;;12.51;76.65;100104.41;5055049;28;45524;-58
2022/12/22 04:34:50;;;;;;;;;1.00;1.00;;;;;12.47;76.78;100093.03;5026315;28;45478;-55
2022/12/22 04:37:15;;;;;;;;;3.00;2.00;;;;;12.53;76.24;100112.44;5051598;28;45407;-54
2022/12/22 04:39:41;;;;;;;;;2.00;1.00;;;;;12.52;76.72;100114.34;5055777;28;45298;-55
2022/12/22 04:42:06;;;;;;;;;2.25;1.25;;;;;12.49;76.25;100117.56;5054906;28;45451;-56
2022/12/22 04:44:32;;;;;;;;;2.00;0.00;;;;;12.51;76.53;100117.31;5055229;28;45425;-57
2022/12/22 04:46:57;;;;;;;;;3.00;0.50;;;;;12.34;76.64;100104.31;5055366;28;45373;-57
2022/12/22 04:49:23;;;;;;;;;0.75;0.75;;;;;12.49;76.50;100139.56;5055886;28;45380;-58
2022/12/22 04:51:50;;;;;;;;;0.80;0.00;;;;;12.47;75.83;100148.09;5054747;28;46522;-58
2022/12/22 04:54:15;;;;;;;;;2.00;1.00;;;;;12.42;76.01;100136.09;5055016;28;45321;-58
2022/12/22 04:56:41;;;;;;;;;0.75;0.50;;;;;12.46;75.41;100162.94;5055227;28;45347;-56
2022/12/22 04:59:06;;;;;;;;;0.00;0.00;;;;;12.32;75.78;100148.56;5055630;28;45249;-55
2022/12/22 05:01:32;;;;;;;;;2.50;0.00;;;;;12.49;75.72;100172.59;5053552;28;46249;-55
2022/12/22 05:03:57;;;;;;;;;3.00;1.00;;;;;12.50;75.42;100181.72;5053640;28;45395;-57
2022/12/22 05:06:23;;;;;;;;;0.00;0.00;;;;;12.47;74.80;100208.66;5054997;28;45459;-58
2022/12/22 05:08:48;;;;;;;;;1.00;1.00;;;;;12.32;75.52;100167.81;5055219;28;45354;-58
2022/12/22 05:11:14;;;;;;;;;1.50;1.50;;;;;12.29;75.63;100173.81;5054897;28;45405;-57
2022/12/22 05:13:39;;;;;;;;;1.00;0.00;;;;;12.45;75.22;100201.69;5055115;28;45674;-58
2022/12/22 05:16:09;;;;;;;;;0.00;0.00;;;;;12.46;74.91;100209.72;5054740;28;45380;-58
2022/12/22 05:18:35;;;;;;;;;0.00;0.00;;;;;12.45;75.54;100216.28;5053818;28;45408;-55
2022/12/22 05:21:03;;;;;;;;;0.00;0.00;;;;;12.45;75.19;100219.03;5053312;28;48038;-54
2022/12/22 05:23:28;;;;;;;;;0.40;0.00;;;;;12.37;74.65;100202.06;5055061;28;45471;-55
2022/12/22 05:25:54;;;;;;;;;2.00;0.00;;;;;12.44;74.49;100224.78;5054597;28;45407;-56
2022/12/22 05:28:19;;;;;;;;;1.75;0.00;;;;;12.40;74.99;100223.59;5054955;28;45407;-57
2022/12/22 05:30:45;;;;;;;;;0.75;0.75;;;;;12.34;74.14;100231.69;5052952;28;45864;-56
2022/12/22 05:33:10;;;;;;;;;0.00;0.00;;;;;11.98;74.07;100166.66;5054334;28;45329;-56
2022/12/22 05:35:35;;;;;;;;;0.00;0.00;;;;;12.06;74.11;100194.69;5054823;28;45333;-56
2022/12/22 05:38:01;;;;;;;;;0.00;0.00;;;;;12.29;74.31;100225.25;5023740;28;45794;-55
2022/12/22 05:40:26;;;;;;;;;0.00;0.00;;;;;12.34;75.06;100247.38;5054612;28;45350;-57
2022/12/22 05:42:52;;;;;;;;;0.00;0.00;;;;;12.31;74.33;100247.84;5054282;28;45457;-54
2022/12/22 05:45:19;;;;;;;;;0.00;0.00;;;;;12.30;75.29;100247.03;5054967;28;45383;-56
2022/12/22 05:47:47;;;;;;;;;0.00;0.00;;;;;12.37;75.24;100257.91;5053340;28;45419;-57
2022/12/22 05:50:13;;;;;;;;;0.00;0.00;;;;;12.35;74.77;100268.31;5054199;28;46675;-58
2022/12/22 05:52:39;;;;;;;;;0.80;0.80;;;;;12.16;75.27;100257.38;5054343;28;45353;-57
2022/12/22 05:55:05;;;;;;;;;0.75;0.75;;;;;12.30;76.23;100274.53;5054251;28;45477;-59
2022/12/22 05:57:30;;;;;;;;;0.00;0.00;;;;;12.34;76.95;100291.41;5053261;28;45309;-58
2022/12/22 05:59:56;;;;;;;;;1.00;0.00;;;;;12.26;78.37;100283.47;5054521;28;46426;-55
2022/12/22 06:02:21;;;;;;;;;0.00;0.00;;;;;12.26;78.91;100281.56;5057663;28;45369;-54
2022/12/22 06:04:47;;;;;;;;;0.00;0.00;;;;;12.27;79.17;100286.00;5056986;28;45388;-57
2022/12/22 06:07:12;;;;;;;;;0.00;0.00;;;;;12.26;79.77;100295.34;5057681;28;45568;-58
2022/12/22 06:09:38;;;;;;;;;0.00;0.00;;;;;12.19;80.73;100300.09;5058194;28;46260;-60
2022/12/22 06:12:04;;;;;;;;;0.00;0.00;;;;;11.97;81.21;100280.47;5057672;28;45480;-60
2022/12/22 06:14:29;;;;;;;;;0.75;0.00;;;;;12.06;82.41;100303.84;5056445;28;45388;-59
2022/12/22 06:16:55;;;;;;;;;0.00;0.00;;;;;11.99;82.97;100297.59;5057939;28;45347;-58
2022/12/22 06:19:20;;;;;;;;;0.00;0.00;;;;;12.03;83.11;100315.31;5057360;28;46392;-57
2022/12/22 06:21:46;;;;;;;;;1.00;0.00;;;;;12.01;83.20;100315.53;5057764;28;45292;-54
2022/12/22 06:24:11;;;;;;;;;2.00;0.00;;;;;12.02;83.17;100319.13;5056356;28;45233;-55
2022/12/22 06:26:37;;;;;;;;;0.00;0.00;;;;;11.95;83.67;100310.97;5057696;28;45521;-55
2022/12/22 06:29:02;;;;;;;;;0.00;0.00;;;;;12.01;84.02;100332.03;5055980;28;45333;-57
2022/12/22 06:31:28;;;;;;;;;0.00;0.00;;;;;11.98;83.84;100328.91;5057070;28;45350;-58
2022/12/22 06:33:53;;;;;;;;;0.00;0.00;;;;;11.97;84.28;100332.72;5057189;28;45352;-58
2022/12/22 06:36:19;;;;;;;;;1.00;0.00;;;;;11.78;83.83;100303.34;5057858;28;45359;-58
2022/12/22 06:38:44;;;;;;;;;1.50;1.50;;;;;11.95;83.92;100341.22;5046886;28;46698;-58
2022/12/22 06:41:10;;;;;;;;;1.25;1.25;;;;;11.84;83.65;100334.56;5054835;28;45305;-58
2022/12/22 06:43:38;;;;;;;;;3.00;1.25;;;;;11.89;83.87;100353.97;5055834;28;45419;-58
2022/12/22 06:46:04;;;;;;;;;1.00;1.00;;;;;11.95;83.79;100365.13;5057493;28;45348;-56
2022/12/22 06:48:29;;;;;;;;;1.00;0.75;;;;;12.00;83.73;100368.88;5056801;28;45953;-56
2022/12/22 06:50:58;;;;;;;;;1.00;1.00;;;;;11.95;83.35;100363.22;5055747;28;45352;-57
2022/12/22 06:53:24;;;;;;;;;3.80;1.00;;;;;11.97;83.01;100374.00;5056782;28;45454;-58
2022/12/22 06:55:50;;;;;;;;;8.80;2.60;;;;;11.96;82.93;100362.16;5057169;28;45390;-58
2022/12/22 06:58:15;;;;;;;;;1.75;1.50;;;;;11.97;82.72;100368.50;5056957;28;45436;-61
2022/12/22 07:00:42;;;;;;;;;6.50;2.25;;;;;11.98;82.37;100382.03;5056700;28;45495;-56
2022/12/22 07:03:07;;;;;;;;;2.80;2.80;;;;;11.87;82.14;100355.28;5056833;28;45344;-55
2022/12/22 07:05:33;;;;;;;;;2.75;2.00;;;;;12.00;82.48;100374.38;5057135;28;45770;-54
2022/12/22 07:07:59;;;;;;;;;4.50;1.50;;;;;11.83;81.94;100354.03;5056492;28;45357;-54
2022/12/22 07:10:56;;;;;;;;;5.00;4.75;;;;;12.00;82.51;100382.63;5055928;28;45379;-57
2022/12/22 07:13:18;;;;;;;;;3.20;2.40;;;;;12.03;82.15;100390.47;5056543;28;45375;-57
2022/12/22 07:15:48;;;;;;;;;3.80;3.40;;;;;11.87;82.33;100382.78;5056920;28;45365;-58
2022/12/22 07:18:13;;;;;;;;;4.80;2.00;;;;;11.93;82.95;100398.38;5055115;28;45596;-54
2022/12/22 07:20:39;;;;;;;;;7.50;5.00;;;;;11.98;82.82;100397.66;5056505;28;45341;-56
2022/12/22 07:23:04;;;;;;;;;7.25;4.25;;;;;11.96;82.94;100405.31;5056442;28;45460;-54
2022/12/22 07:25:30;;;;;;;;;5.00;2.50;;;;;12.01;82.83;100400.78;5056923;28;45352;-56
2022/12/22 07:27:55;;;;;;;;;6.75;4.25;;;;;12.04;82.51;100400.38;5056360;28;46251;-57
2022/12/22 07:30:21;;;;;;;;;5.50;3.25;;;;;12.03;82.15;100398.72;5055128;28;45446;-57
2022/12/22 07:32:46;;;;;;;;;9.00;4.50;;;;;12.05;81.98;100401.22;5056311;28;45403;-58
2022/12/22 07:35:12;;;;;;;;;6.00;4.00;;;;;11.83;81.62;100371.41;5056807;28;45441;-58
2022/12/22 07:37:37;;;;;;;;;9.25;5.00;;;;;12.02;81.49;100412.66;5056086;28;45444;-58
2022/12/22 07:40:03;;;;;;;;;8.50;7.00;;;;;12.00;81.20;100423.88;5055543;28;45374;-53
2022/12/22 07:42:43;;;;;;;;;12.25;8.25;;;;;12.02;81.05;100410.72;5056078;28;45255;-56
2022/12/22 07:45:16;;;;;;;;;8.40;4.40;;;;;12.09;81.26;100421.69;5056507;28;45645;-56
2022/12/22 07:47:42;;;;;;;;;7.20;5.20;;;;;12.09;80.52;100420.84;5056315;28;45385;-59
2022/12/22 07:50:24;;;;;;;;;9.75;9.75;;;;;11.86;80.72;100379.22;5056487;28;45606;-58
2022/12/22 07:52:59;;;;;;;;;11.00;4.00;;;;;12.09;80.24;100416.19;5056497;28;45430;-58
2022/12/22 07:55:25;;;;;;;;;8.40;4.60;;;;;12.07;79.98;100418.34;5056386;28;45627;-57
2022/12/22 07:57:51;;;;;;;;;10.00;7.40;;;;;12.13;80.13;100422.06;5054713;28;46363;-53
2022/12/22 08:00:17;;;;;;;;;15.75;5.00;;;;;12.16;79.81;100421.59;5056203;28;45384;-54
2022/12/22 08:02:44;;;;;;;;;8.75;6.00;;;;;11.84;79.66;100359.31;5056097;28;45365;-56
2022/12/22 08:05:10;;;;;;;;;9.40;6.20;;;;;12.17;79.81;100423.31;5056052;28;45425;-57
2022/12/22 08:07:35;;;;;;;;;15.25;9.25;;;;;11.94;79.73;100391.78;5055702;28;45539;-56
2022/12/22 08:10:01;;;;;;;;;17.50;10.00;;;;;12.17;79.72;100423.31;5056047;28;45465;-59
2022/12/22 08:12:28;;;;;;;;;16.00;4.50;;;;;12.03;79.40;100398.72;5022583;28;45999;-58
2022/12/22 08:14:54;;;;;;;;;12.40;8.00;;;;;12.22;79.49;100436.38;5049420;28;46154;-60
2022/12/22 08:17:19;;;;;;;;;10.00;7.25;;;;;12.15;79.03;100436.44;5051143;28;46063;-58
2022/12/22 08:19:47;;;;;;;;;13.50;8.75;;;;;12.22;78.50;100444.63;5048995;28;45490;-56
2022/12/22 08:22:13;;;;;;;;;12.80;4.60;;;;;12.23;78.42;100436.13;5051156;28;45856;-58
2022/12/22 08:24:38;;;;;;;;;15.25;11.00;;;;;12.26;78.24;100438.41;5051364;28;45415;-58
2022/12/22 08:27:06;;;;;;;;;10.50;7.00;;;;;12.26;78.03;100440.31;5051311;28;46341;-57
2022/12/22 08:29:37;;;;;;;;;18.60;12.80;;;;;12.19;78.32;100433.00;5049924;28;45517;-59
2022/12/22 08:32:03;;;;;;;;;15.00;12.40;;;;;12.28;78.09;100441.78;5049953;28;45832;-56
2022/12/22 08:34:28;;;;;;;;;10.00;5.00;;;;;12.12;77.67;100421.22;5033462;28;45458;-59
2022/12/22 08:36:55;;;;;;;;;11.00;9.75;;;;;12.37;78.17;100460.75;5050891;28;46322;-60
2022/12/22 08:39:21;;;;;;;;;10.40;6.60;;;;;12.39;77.92;100453.09;5034084;28;45490;-57
2022/12/22 08:41:49;;;;;;;;;18.50;11.25;;;;;12.35;77.48;100452.72;5053068;28;45421;-55
2022/12/22 08:44:23;;;;;;;;;17.80;9.00;;;;;12.23;77.49;100427.88;5052874;28;45541;-57
2022/12/22 08:46:48;;;;;;;;;12.60;9.80;;;;;12.34;77.62;100440.84;5011697;28;45713;-57
2022/12/22 08:49:15;;;;;;;;;17.00;11.75;;;;;12.39;77.42;100442.06;5045976;28;45388;-57
2022/12/22 08:51:40;;;;;;;;;12.40;6.80;;;;;12.39;77.38;100442.91;5047680;28;45504;-58
2022/12/22 08:54:06;;;;;;;;;17.00;11.00;;;;;12.43;77.14;100438.63;5048619;28;45545;-59
2022/12/22 08:56:31;;;;;;;;;14.25;8.75;;;;;12.44;77.15;100448.56;5045736;28;45481;-60
2022/12/22 08:58:57;;;;;;;;;11.75;9.75;;;;;12.42;77.55;100436.94;5049075;27;45499;-57
2022/12/22 09:01:23;;;;;;;;;13.75;9.50;;;;;12.43;77.22;100437.81;5044886;28;45723;-58
2022/12/22 09:03:49;;;;;;;;;14.25;10.00;;;;;12.32;77.00;100425.63;5048617;28;45486;-56
2022/12/22 09:06:18;;;;;;;;;13.00;9.60;;;;;12.39;77.58;100442.06;5045765;28;46987;-54
2022/12/22 09:08:43;;;;;;;;;12.80;9.40;;;;;12.42;77.28;100436.09;5036809;28;45862;-56
2022/12/22 09:11:09;;;;;;;;;19.25;10.25;;;;;12.38;77.29;100445.91;5036608;28;45418;-55
2022/12/22 09:13:34;;;;;;;;;16.25;9.75;;;;;12.41;77.13;100450.94;5027376;27;46025;-58
2022/12/22 09:16:06;;;;;;;;;9.75;5.00;;;;;12.39;76.84;100442.91;5005767;28;45722;-60
2022/12/22 09:18:32;;;;;;;;;14.20;6.20;;;;;12.41;77.13;100442.69;5042316;28;45427;-60
2022/12/22 09:20:58;;;;;;;;;17.75;10.25;;;;;12.23;76.70;100422.38;5051792;28;45488;-58
2022/12/22 09:23:24;;;;;;;;;18.00;9.50;;;;;12.43;77.45;100455.13;5053802;28;45316;-58
2022/12/22 09:25:49;;;;;;;;;8.50;2.00;;;;;12.38;77.35;100440.41;5052558;28;46350;-62
2022/12/22 09:28:15;;;;;;;;;13.50;11.25;;;;;12.51;77.12;100458.63;5051123;28;45520;-60
2022/12/22 09:30:40;;;;;;;;;7.00;6.00;;;;;12.41;76.51;100438.03;5054292;27;45300;-59
2022/12/22 09:33:06;;;;;;;;;16.25;8.50;;;;;12.45;76.81;100441.16;5053348;28;45399;-59
2022/12/22 09:35:31;;;;;;;;;16.50;12.00;;;;;12.50;77.08;100454.22;5055842;28;45679;-59
2022/12/22 09:37:57;;;;;;;;;13.00;9.50;;;;;12.56;76.94;100454.13;5057325;28;45225;-52
2022/12/22 09:40:23;;;;;;;;;12.00;9.00;;;;;12.61;77.02;100467.19;5058597;28;45376;-57
2022/12/22 09:42:49;;;;;;;;;13.20;8.60;;;;;12.43;76.88;100429.53;5058323;28;45801;-56
2022/12/22 09:45:18;;;;;;;;;15.75;10.25;;;;;12.63;76.59;100464.22;5057960;28;45914;-57
2022/12/22 09:47:52;;;;;;;;;13.60;10.80;;;;;12.70;76.62;100468.53;5056311;28;45246;-55
2022/12/22 09:50:22;;;;;;;;;17.40;10.00;;;;;12.71;76.60;100472.97;5024954;28;45965;-54
2022/12/22 09:52:57;;;;;;;;;15.80;10.20;;;;;12.59;76.43;100445.41;5021709;28;45663;-57
2022/12/22 09:55:25;;;;;;;;;12.20;10.80;;;;;12.80;76.41;100481.75;5047597;28;46660;-58
2022/12/22 09:57:55;;;;;;;;;14.00;7.20;;;;;12.72;76.57;100474.66;5031570;28;45913;-60
2022/12/22 10:00:23;;;;;;;;;12.60;9.80;;;;;12.78;77.00;100491.31;5041736;28;45714;-61
2022/12/22 10:02:59;;;;;;;;;13.80;12.00;;;;;12.74;76.53;100479.94;5031980;28;45499;-61
2022/12/22 10:05:50;;;;;;;;;11.40;6.00;;;;;12.72;76.94;100484.84;5032949;28;46477;-59
2022/12/22 10:08:20;;;;;;;;;8.80;7.80;;;;;12.64;76.96;100463.97;5033418;28;45792;-59
2022/12/22 10:10:45;;;;;;;;;18.60;11.20;;;;;12.70;76.51;100468.53;5030826;28;45405;-57
2022/12/22 10:13:16;;;;;;;;;14.75;12.00;;;;;12.75;76.67;100473.34;5042478;28;45640;-59
2022/12/22 10:15:41;;;;;;;;;13.80;10.00;;;;;12.72;76.63;100465.56;5031548;28;48079;-60
2022/12/22 10:18:08;;;;;;;;;17.50;11.00;;;;;12.71;76.20;100450.13;5053301;28;45771;-59
2022/12/22 10:20:37;;;;;;;;;11.60;7.40;;;;;12.76;76.15;100475.06;5042911;28;45508;-58
2022/12/22 10:23:16;;;;;;;;;17.40;10.20;;;;;12.55;76.77;100421.31;5033458;28;45883;-59
2022/12/22 10:26:04;;;;;;;;;14.60;9.20;;;;;12.83;76.58;100470.28;5018699;28;47725;-60
2022/12/22 10:29:05;;;;;;;;;17.40;8.40;;;;;12.92;75.73;100465.25;5035313;28;45936;-58
2022/12/22 10:31:32;;;;;;;;;16.60;8.40;;;;;12.98;75.54;100469.00;5030020;28;45567;-58
2022/12/22 10:34:15;;;;;;;;;9.80;7.00;;;;;12.94;75.94;100456.78;5035879;28;45461;-59
2022/12/22 10:36:48;;;;;;;;;18.60;10.20;;;;;13.01;75.71;100461.13;5037039;28;46083;-59
2022/12/22 10:39:22;;;;;;;;;14.20;10.60;;;;;12.93;75.55;100455.09;5035702;28;45330;-60
2022/12/22 10:41:48;;;;;;;;;12.80;9.80;;;;;13.05;75.31;100466.16;5036000;28;45385;-60
2022/12/22 10:44:14;;;;;;;;;13.60;8.40;;;;;13.05;75.53;100464.25;5035954;28;45343;-60
2022/12/22 10:46:50;;;;;;;;;7.50;4.50;;;;;13.03;75.69;100458.13;5037458;28;46465;-60
2022/12/22 10:49:23;;;;;;;;;10.20;9.00;;;;;13.05;75.24;100464.25;5036212;28;45226;-59
2022/12/22 10:51:53;;;;;;;;;13.80;9.60;;;;;13.10;75.29;100464.38;5002892;28;45218;-59
2022/12/22 10:54:25;;;;;;;;;13.00;9.00;;;;;13.10;75.21;100463.53;5046374;28;45458;-60
2022/12/22 10:57:09;;;;;;;;;13.80;12.20;;;;;13.10;74.86;100460.78;4990060;28;46458;-59
2022/12/22 10:59:45;;;;;;;;;14.00;8.80;;;;;12.95;75.41;100433.66;5040520;28;45741;-58
2022/12/22 11:02:36;;;;;;;;;12.40;10.20;;;;;13.10;75.16;100458.88;5022169;28;45554;-60
2022/12/22 11:05:11;;;;;;;;;13.20;9.60;;;;;13.11;75.58;100455.03;5038820;28;45533;-59
2022/12/22 11:07:39;;;;;;;;;12.60;6.80;;;;;13.05;75.44;100447.72;5039068;28;46005;-59
2022/12/22 11:10:30;;;;;;;;;13.20;10.40;;;;;13.12;75.18;100461.38;5016456;28;45487;-59
2022/12/22 11:13:01;;;;;;;;;9.80;6.60;;;;;13.15;75.02;100456.22;5033785;28;45622;-59
2022/12/22 11:15:32;;;;;;;;;9.80;8.20;;;;;12.63;74.97;100367.88;5042350;28;45874;-60
2022/12/22 11:18:25;;;;;;;;;13.00;7.80;;;;;13.13;74.52;100443.78;5034978;28;46777;-59
2022/12/22 11:21:03;;;;;;;;;8.20;6.40;;;;;13.11;74.95;100449.53;5052384;28;45979;-60
2022/12/22 11:23:53;;;;;;;;;11.00;6.00;;;;;13.10;75.22;100447.84;5051366;28;45518;-60
2022/12/22 11:26:26;;;;;;;;;16.20;9.40;;;;;12.92;75.02;100414.88;5030731;28;45568;-60
2022/12/22 11:29:09;;;;;;;;;11.20;10.20;;;;;13.09;74.89;100440.66;5013685;28;46539;-59
2022/12/22 11:31:38;;;;;;;;;14.20;12.60;;;;;13.14;75.32;100442.69;5025487;28;45466;-53
2022/12/22 11:34:29;;;;;;;;;21.60;15.80;;;;;13.17;75.32;100433.94;5033709;28;45496;-59
2022/12/22 11:37:34;;;;;;;;;15.40;11.40;;;;;13.15;75.35;100436.94;5035426;28;45365;-61
2022/12/22 11:40:14;;;;;;;;;15.40;11.00;;;;;13.10;74.87;100433.22;5027195;28;46449;-65
2022/12/22 11:42:49;;;;;;;;;11.00;10.20;;;;;13.33;75.43;100437.94;5040076;28;45578;-60
2022/12/22 11:45:59;;;;;;;;;13.80;11.60;;;;;13.45;74.54;100432.41;5042000;28;45348;-62
2022/12/22 11:48:45;;;;;;;;;22.40;17.00;;;;;13.40;74.46;100438.66;5044682;28;45270;-63
2022/12/22 11:51:32;;;;;;;;;21.20;14.40;;;;;13.37;74.65;100435.53;5014682;28;46498;-60
2022/12/22 11:53:58;;;;;;;;;15.60;11.80;;;;;13.37;74.52;100430.88;5016370;28;45864;-60
2022/12/22 11:56:24;;;;;;;;;12.75;8.00;;;;;13.37;74.58;100427.25;5015547;28;45316;-60
2022/12/22 11:59:12;;;;;;;;;15.20;10.80;;;;;13.37;74.36;100400.56;4991655;28;45643;-60
2022/12/22 12:01:46;;;;;;;;;17.20;14.80;;;;;13.37;74.33;100406.06;5032139;28;46240;-59
2022/12/22 12:04:38;;;;;;;;;20.60;11.40;;;;;13.37;74.58;100413.47;5030022;28;45793;-60
2022/12/22 12:07:16;;;;;;;;;9.20;9.00;;;;;13.31;74.46;100390.47;5030543;28;45451;-60
2022/12/22 12:10:20;;;;;;;;;15.60;11.00;;;;;13.36;74.94;100404.41;5031292;28;45888;-60
2022/12/22 12:13:16;;;;;;;;;16.40;9.60;;;;;13.38;74.67;100396.72;5042399;28;46916;-62
2022/12/22 12:16:19;;;;;;;;;16.60;12.00;;;;;13.34;74.24;100391.94;5030746;28;48997;-60
2022/12/22 12:18:50;;;;;;;;;10.00;7.00;;;;;13.36;74.35;100392.50;5036656;28;45643;-64
2022/12/22 12:21:28;;;;;;;;;13.20;9.20;;;;;13.28;74.64;100383.53;5031928;28;45396;-61
2022/12/22 12:24:32;;;;;;;;;14.40;10.60;;;;;13.33;74.31;100379.22;5030143;28;46211;-63
2022/12/22 12:27:10;;;;;;;;;10.60;6.80;;;;;13.27;74.86;100373.59;5031432;28;45435;-63
2022/12/22 12:29:54;;;;;;;;;16.20;9.80;;;;;13.23;74.57;100374.31;5031621;28;45974;-59
2022/12/22 12:32:41;;;;;;;;;15.00;11.20;;;;;13.21;75.22;100365.41;5026000;28;45350;-60
2022/12/22 12:35:28;;;;;;;;;12.00;9.60;;;;;13.20;75.48;100359.09;5010777;28;46708;-63
2022/12/22 12:37:57;;;;;;;;;6.80;5.00;;;;;13.14;75.26;100343.50;5009640;28;45396;-62
2022/12/22 12:40:47;;;;;;;;;12.60;7.40;;;;;13.17;74.79;100353.22;5010212;28;45516;-60
2022/12/22 12:43:12;;;;;;;;;17.00;7.60;;;;;13.18;75.02;100346.63;4993530;28;45561;-60
2022/12/22 12:45:42;;;;;;;;;11.00;9.50;;;;;13.14;75.41;100343.50;5011088;28;46299;-58
2022/12/22 12:48:20;;;;;;;;;14.20;5.60;;;;;13.15;75.22;100345.19;5011145;28;45550;-58
2022/12/22 12:50:50;;;;;;;;;11.00;6.60;;;;;13.12;75.29;100337.38;5009881;28;45507;-59
2022/12/22 12:53:33;;;;;;;;;11.00;6.80;;;;;13.09;75.40;100326.84;5011722;28;45542;-60
2022/12/22 12:56:01;;;;;;;;;15.80;9.20;;;;;12.46;75.47;100223.47;5029728;28;45905;-61
2022/12/22 12:58:38;;;;;;;;;6.60;5.20;;;;;12.51;76.27;100235.69;5013169;28;45460;-59
2022/12/22 13:01:03;;;;;;;;;11.60;8.20;;;;;13.07;76.32;100323.50;5031049;28;45581;-56
2022/12/22 13:03:29;;;;;;;;;14.50;9.00;;;;;13.03;76.62;100320.38;5031223;28;45714;-57
2022/12/22 13:05:56;;;;;;;;;15.50;11.00;;;;;12.98;77.22;100306.50;5030360;28;46181;-55
2022/12/22 13:08:22;;;;;;;;;10.60;5.00;;;;;12.99;77.70;100308.16;5009372;28;45468;-54
2022/12/22 13:10:52;;;;;;;;;13.60;9.20;;;;;12.98;77.98;100318.31;5051030;28;45563;-58
2022/12/22 13:13:20;;;;;;;;;11.80;8.00;;;;;12.98;78.04;100304.56;5023146;28;45482;-58
2022/12/22 13:15:45;;;;;;;;;12.60;9.60;;;;;12.95;78.08;100304.19;5046001;28;45472;-57
2022/12/22 13:18:23;;;;;;;;;10.00;7.75;;;;;12.91;79.00;100292.00;5029073;28;45544;-55
2022/12/22 13:20:56;;;;;;;;;14.60;9.60;;;;;12.88;78.69;100299.63;5030619;28;45429;-58
2022/12/22 13:23:21;;;;;;;;;10.60;9.60;;;;;12.67;79.01;100264.44;5004953;28;45792;-56
2022/12/22 13:25:49;;;;;;;;;12.25;7.00;;;;;12.85;79.98;100285.50;5012291;28;45961;-54
2022/12/22 13:28:15;;;;;;;;;12.60;8.40;;;;;12.83;79.57;100280.25;5029110;28;45383;-56
2022/12/22 13:30:47;;;;;;;;;12.20;10.20;;;;;12.64;79.65;100246.47;5022482;28;45461;-56
2022/12/22 13:33:15;;;;;;;;;9.40;7.40;;;;;12.82;79.99;100284.06;5021764;28;45852;-56
2022/12/22 13:35:40;;;;;;;;;13.20;8.20;;;;;12.80;80.00;100275.22;5012322;28;45405;-61
2022/12/22 13:38:06;;;;;;;;;15.25;9.50;;;;;12.79;80.41;100270.78;5030210;28;45635;-64
2022/12/22 13:40:41;;;;;;;;;13.75;9.50;;;;;12.78;80.52;100269.13;5028142;28;45472;-59
2022/12/22 13:43:14;;;;;;;;;12.60;11.00;;;;;12.77;80.59;100259.19;5013969;28;45499;-59
2022/12/22 13:45:43;;;;;;;;;14.80;9.80;;;;;12.77;80.48;100259.19;5045813;28;46602;-56
2022/12/22 13:48:13;;;;;;;;;12.80;9.40;;;;;12.76;80.85;100263.03;5048440;28;45833;-61
2022/12/22 13:50:42;;;;;;;;;9.80;7.60;;;;;12.74;80.88;100257.75;5030830;28;45423;-62
2022/12/22 13:53:09;;;;;;;;;14.60;8.80;;;;;12.61;81.00;100238.69;5047842;28;45473;-60
2022/12/22 13:55:35;;;;;;;;;12.20;7.60;;;;;12.70;81.17;100255.72;5028049;28;45572;-60
2022/12/22 13:58:14;;;;;;;;;12.60;8.40;;;;;12.69;81.68;100260.34;5047361;28;45615;-55
2022/12/22 14:00:40;;;;;;;;;16.60;10.00;;;;;12.69;81.39;100248.50;5047334;28;45531;-58
2022/12/22 14:03:13;;;;;;;;;13.50;10.00;;;;;12.68;81.80;100253.19;5047731;28;45304;-55
2022/12/22 14:05:39;;;;;;;;;14.20;8.20;;;;;12.43;81.49;100203.84;5048044;28;45554;-53
2022/12/22 14:08:05;;;;;;;;;12.00;4.00;;;;;12.69;81.88;100240.22;5048730;28;45431;-57
2022/12/22 14:10:38;;;;;;;;;9.60;8.80;;;;;12.66;81.98;100233.31;5046354;28;45491;-55
2022/12/22 14:13:06;;;;;;;;;13.80;7.80;;;;;12.44;82.28;100197.28;5047545;28;45458;-56
2022/12/22 14:15:32;;;;;;;;;9.60;5.20;;;;;12.63;82.50;100227.44;5037585;28;46258;-58
2022/12/22 14:17:57;;;;;;;;;7.75;6.00;;;;;12.59;82.83;100214.16;5047569;28;45389;-60
2022/12/22 14:20:37;;;;;;;;;8.25;5.00;;;;;12.61;82.61;100225.75;5048383;28;45362;-59
2022/12/22 14:23:06;;;;;;;;;9.60;7.00;;;;;12.61;82.42;100219.44;5052180;28;45429;-57
2022/12/22 14:25:36;;;;;;;;;12.20;9.20;;;;;12.46;82.53;100198.72;5022786;28;46935;-56
2022/12/22 14:28:03;;;;;;;;;12.00;8.80;;;;;12.64;83.04;100220.88;5053742;28;45541;-60
2022/12/22 14:30:34;;;;;;;;;10.60;7.40;;;;;12.52;83.25;100204.31;5055189;28;45435;-60
2022/12/22 14:33:14;;;;;;;;;27.00;19.40;;;;;12.63;83.14;100221.94;5055130;28;45491;-60
2022/12/22 14:35:40;;;;;;;;;10.40;8.80;;;;;12.55;83.55;100204.69;5054844;28;46441;-61
2022/12/22 14:38:05;;;;;;;;;13.25;10.75;;;;;12.62;83.47;100218.34;5055286;28;45453;-60
2022/12/22 14:40:37;;;;;;;;;11.00;9.50;;;;;12.36;83.67;100172.84;5055518;28;45658;-60
2022/12/22 14:43:04;;;;;;;;;13.00;9.40;;;;;12.58;83.78;100186.84;5055850;28;45336;-60
2022/12/22 14:45:30;;;;;;;;;5.60;4.40;;;;;12.60;83.76;100185.53;5056728;28;45333;-61
2022/12/22 14:47:56;;;;;;;;;10.00;5.00;;;;;12.58;84.24;100173.09;5057152;28;45365;-60
2022/12/22 14:50:22;;;;;;;;;14.50;8.25;;;;;12.55;84.09;100168.91;5057432;28;45388;-60
2022/12/22 14:52:55;;;;;;;;;14.00;6.00;;;;;12.45;84.07;100143.91;5038947;28;45431;-58
2022/12/22 14:55:28;;;;;;;;;10.40;8.60;;;;;12.42;84.48;100153.47;5057040;28;45729;-60
2022/12/22 14:57:57;;;;;;;;;13.60;5.80;;;;;12.49;84.95;100150.59;5057113;28;45309;-59
2022/12/22 15:00:23;;;;;;;;;4.60;4.00;;;;;12.50;84.80;100144.03;5039217;28;45453;-60
2022/12/22 15:02:58;;;;;;;;;7.00;4.75;;;;;12.28;84.91;100111.56;5057045;28;45472;-59
2022/12/22 15:05:24;;;;;;;;;7.60;5.60;;;;;12.47;84.77;100131.56;5055577;28;45654;-60
2022/12/22 15:07:51;;;;;;;;;11.40;6.80;;;;;12.44;84.62;100121.03;5056538;28;45485;-60